Time,TemperatureF,DewpointF,PressureIn,WindDirection,WindDirectionDegrees,WindSpeedMPH,WindSpeedGustMPH,Humidity,HourlyPrecipIn,Conditions,Clouds,dailyrainin,SolarRadiationWatts/m^2,SoftwareType,DateUTC
2013-04-23 00:12:00,34.0,23.0,-100.00,WNW,298,15.0,27.0,63,0.00,,,0.10,0.000000,,2013-04-23 06:12:00,
2013-04-23 00:21:00,34.0,23.0,-100.00,WNW,298,15.0,27.0,63,0.00,,,0.10,0.000000,,2013-04-23 06:21:00,
2013-04-23 00:32:00,34.0,23.0,-100.00,WNW,298,15.0,27.0,63,0.00,,,0.10,0.000000,,2013-04-23 06:32:00,
2013-04-23 00:41:00,34.0,23.0,-100.00,WNW,298,15.0,27.0,63,0.00,,,0.10,0.000000,,2013-04-23 06:41:00,
2013-04-23 01:11:00,32.0,22.0,-100.00,West,276,12.0,31.0,67,0.00,,,0.10,0.000000,,2013-04-23 07:11:00,
2013-04-23 01:21:00,32.0,22.0,-100.00,West,276,12.0,31.0,67,0.00,,,0.10,0.000000,,2013-04-23 07:21:00,
2013-04-23 01:32:00,32.0,22.0,-100.00,West,276,12.0,31.0,67,0.00,,,0.10,0.000000,,2013-04-23 07:32:00,
2013-04-23 01:42:00,32.0,22.0,-100.00,West,276,12.0,31.0,67,0.00,,,0.10,0.000000,,2013-04-23 07:42:00,
2013-04-23 02:11:00,30.0,23.0,-100.00,NW,305,6.0,25.0,74,0.00,,,0.10,0.000000,,2013-04-23 08:11:00,
2013-04-23 02:21:00,30.0,23.0,-100.00,NW,305,6.0,25.0,74,0.00,,,0.10,0.000000,,2013-04-23 08:21:00,
2013-04-23 02:31:00,30.0,23.0,-100.00,NW,305,6.0,25.0,74,0.00,,,0.10,0.000000,,2013-04-23 08:31:00,
2013-04-23 02:42:00,30.0,23.0,-100.00,NW,305,6.0,25.0,74,0.00,,,0.10,0.000000,,2013-04-23 08:42:00,
2013-04-23 03:11:00,28.0,24.0,-100.00,WNW,293,15.0,25.0,83,0.00,,,0.10,0.000000,,2013-04-23 09:11:00,
2013-04-23 03:21:00,28.0,24.0,-100.00,WNW,293,15.0,25.0,83,0.00,,,0.10,0.000000,,2013-04-23 09:21:00,
2013-04-23 03:32:00,28.0,24.0,-100.00,WNW,293,15.0,25.0,83,0.00,,,0.10,0.000000,,2013-04-23 09:32:00,
2013-04-23 03:42:00,28.0,24.0,-100.00,WNW,293,15.0,25.0,83,0.00,,,0.10,0.000000,,2013-04-23 09:42:00,
2013-04-23 04:13:00,26.0,25.0,-100.00,WNW,287,13.0,27.0,94,0.00,,,0.10,0.000000,,2013-04-23 10:13:00,
2013-04-23 04:22:00,26.0,25.0,-100.00,WNW,287,13.0,27.0,94,0.00,,,0.10,0.000000,,2013-04-23 10:22:00,
2013-04-23 04:32:00,26.0,25.0,-100.00,WNW,287,13.0,27.0,94,0.00,,,0.10,0.000000,,2013-04-23 10:32:00,
2013-04-23 04:42:00,26.0,25.0,-100.00,WNW,287,13.0,27.0,94,0.00,,,0.10,0.000000,,2013-04-23 10:42:00,
2013-04-23 05:12:00,24.0,23.0,-100.00,WNW,287,14.0,24.0,95,0.00,,,0.10,0.000000,,2013-04-23 11:12:00,
2013-04-23 05:21:00,24.0,23.0,-100.00,WNW,287,14.0,24.0,95,0.00,,,0.10,0.000000,,2013-04-23 11:21:00,
2013-04-23 05:32:00,24.0,23.0,-100.00,WNW,287,14.0,24.0,95,0.00,,,0.10,0.000000,,2013-04-23 11:32:00,
2013-04-23 05:42:00,24.0,23.0,-100.00,WNW,287,14.0,24.0,95,0.00,,,0.10,0.000000,,2013-04-23 11:42:00,
2013-04-23 06:12:00,23.0,22.0,-100.00,NW,307,9.0,24.0,95,0.00,,,0.10,0.000000,,2013-04-23 12:12:00,
2013-04-23 06:22:00,23.0,22.0,-100.00,NW,307,9.0,24.0,95,0.00,,,0.10,0.000000,,2013-04-23 12:22:00,
2013-04-23 06:32:00,23.0,22.0,-100.00,NW,307,9.0,24.0,95,0.00,,,0.10,0.000000,,2013-04-23 12:32:00,
2013-04-23 06:41:00,23.0,22.0,-100.00,NW,307,9.0,24.0,95,0.00,,,0.10,0.000000,,2013-04-23 12:41:00,
2013-04-23 07:11:00,23.0,22.0,-100.00,WNW,290,8.0,17.0,95,0.00,,,0.10,8.000000,,2013-04-23 13:11:00,
2013-04-23 07:21:00,23.0,22.0,-100.00,WNW,290,8.0,17.0,95,0.00,,,0.10,8.000000,,2013-04-23 13:21:00,
2013-04-23 07:32:00,23.0,22.0,-100.00,WNW,290,8.0,17.0,95,0.00,,,0.10,8.000000,,2013-04-23 13:32:00,
2013-04-23 07:41:00,23.0,22.0,-100.00,WNW,290,8.0,17.0,95,0.00,,,0.10,8.000000,,2013-04-23 13:41:00,
2013-04-23 08:11:00,25.0,22.0,-100.00,WNW,283,10.0,19.0,88,0.00,,,-99.99,88.000000,,2013-04-23 14:11:00,
2013-04-23 08:22:00,25.0,22.0,-100.00,WNW,283,10.0,19.0,88,0.00,,,-99.99,88.000000,,2013-04-23 14:22:00,
2013-04-23 08:31:00,25.0,22.0,-100.00,WNW,283,10.0,19.0,88,0.00,,,-99.99,88.000000,,2013-04-23 14:31:00,
2013-04-23 08:42:00,25.0,22.0,-100.00,WNW,283,10.0,19.0,88,0.00,,,-99.99,88.000000,,2013-04-23 14:42:00,
2013-04-23 09:12:00,27.0,23.0,-100.00,WNW,288,9.0,17.0,85,0.01,,,0.11,347.000000,,2013-04-23 15:12:00,
2013-04-23 09:21:00,27.0,23.0,-100.00,WNW,288,9.0,17.0,85,0.01,,,0.11,347.000000,,2013-04-23 15:21:00,
2013-04-23 09:32:00,27.0,23.0,-100.00,WNW,288,9.0,17.0,85,0.01,,,0.11,347.000000,,2013-04-23 15:32:00,
2013-04-23 09:42:00,27.0,23.0,-100.00,WNW,288,9.0,17.0,85,0.01,,,0.11,347.000000,,2013-04-23 15:42:00,
2013-04-23 10:12:00,28.0,22.0,-100.00,WNW,302,12.0,24.0,77,0.00,,,0.04,675.000000,,2013-04-23 16:12:00,
2013-04-23 10:23:00,28.0,22.0,-100.00,WNW,302,12.0,24.0,77,0.00,,,0.04,675.000000,,2013-04-23 16:23:00,
2013-04-23 10:33:00,28.0,22.0,-100.00,WNW,302,12.0,24.0,77,0.00,,,0.04,675.000000,,2013-04-23 16:33:00,
2013-04-23 10:42:00,28.0,22.0,-100.00,WNW,302,12.0,24.0,77,0.00,,,0.04,675.000000,,2013-04-23 16:42:00,
2013-04-23 11:11:00,29.0,20.0,-100.00,WNW,289,18.0,31.0,69,0.01,,,0.02,934.000000,,2013-04-23 17:11:00,
2013-04-23 11:22:00,29.0,20.0,-100.00,WNW,289,18.0,31.0,69,0.01,,,0.02,934.000000,,2013-04-23 17:22:00,
2013-04-23 11:32:00,29.0,20.0,-100.00,WNW,289,18.0,31.0,69,0.01,,,0.02,934.000000,,2013-04-23 17:32:00,
2013-04-23 11:42:00,29.0,20.0,-100.00,WNW,289,18.0,31.0,69,0.01,,,0.02,934.000000,,2013-04-23 17:42:00,
2013-04-23 12:12:00,31.0,21.0,-100.00,WNW,289,11.0,28.0,66,0.00,,,-99.99,1135.000000,,2013-04-23 18:12:00,
2013-04-23 12:22:00,31.0,21.0,-100.00,WNW,289,11.0,28.0,66,0.00,,,-99.99,1135.000000,,2013-04-23 18:22:00,
2013-04-23 12:32:00,31.0,21.0,-100.00,WNW,289,11.0,28.0,66,0.00,,,-99.99,1135.000000,,2013-04-23 18:32:00,
2013-04-23 12:42:00,31.0,21.0,-100.00,WNW,289,11.0,28.0,66,0.00,,,-99.99,1135.000000,,2013-04-23 18:42:00,
2013-04-23 13:11:00,31.0,18.0,-100.00,WNW,296,13.0,25.0,59,0.00,,,0.02,1226.000000,,2013-04-23 19:11:00,
2013-04-23 13:21:00,31.0,18.0,-100.00,WNW,296,13.0,25.0,59,0.00,,,0.02,1226.000000,,2013-04-23 19:21:00,
2013-04-23 13:32:00,31.0,18.0,-100.00,WNW,296,13.0,25.0,59,0.00,,,0.02,1226.000000,,2013-04-23 19:32:00,
2013-04-23 13:42:00,31.0,18.0,-100.00,WNW,296,13.0,25.0,59,0.00,,,0.02,1226.000000,,2013-04-23 19:42:00,
2013-04-23 14:11:00,32.0,18.0,-100.00,WNW,295,17.0,28.0,55,0.00,,,0.02,1215.000000,,2013-04-23 20:11:00,
2013-04-23 14:21:00,32.0,18.0,-100.00,WNW,295,17.0,28.0,55,0.00,,,0.02,1215.000000,,2013-04-23 20:21:00,
2013-04-23 14:31:00,32.0,18.0,-100.00,WNW,295,17.0,28.0,55,0.00,,,0.02,1215.000000,,2013-04-23 20:31:00,
2013-04-23 14:41:00,32.0,18.0,-100.00,WNW,295,17.0,28.0,55,0.00,,,0.02,1215.000000,,2013-04-23 20:41:00,
2013-04-23 15:11:00,32.0,15.0,-100.00,West,277,15.0,30.0,49,0.00,,,0.02,1260.000000,,2013-04-23 21:11:00,
2013-04-23 15:21:00,32.0,15.0,-100.00,West,277,15.0,30.0,49,0.00,,,0.02,1260.000000,,2013-04-23 21:21:00,
2013-04-23 15:32:00,32.0,15.0,-100.00,West,277,15.0,30.0,49,0.00,,,0.02,1260.000000,,2013-04-23 21:32:00,
2013-04-23 15:43:00,32.0,15.0,-100.00,West,277,15.0,30.0,49,0.00,,,0.02,1260.000000,,2013-04-23 21:43:00,
2013-04-23 16:12:00,32.0,13.0,-100.00,WNW,297,14.0,31.0,45,0.00,,,0.02,1029.000000,,2013-04-23 22:12:00,
2013-04-23 16:22:00,32.0,13.0,-100.00,WNW,297,14.0,31.0,45,0.00,,,0.02,1029.000000,,2013-04-23 22:22:00,
2013-04-23 16:33:00,32.0,13.0,-100.00,WNW,297,14.0,31.0,45,0.00,,,0.02,1029.000000,,2013-04-23 22:33:00,
2013-04-23 16:42:00,32.0,13.0,-100.00,WNW,297,14.0,31.0,45,0.00,,,0.02,1029.000000,,2013-04-23 22:42:00,
2013-04-23 17:12:00,32.0,8.0,-100.00,West,281,17.0,33.0,36,0.00,,,0.02,875.000000,,2013-04-23 23:12:00,
2013-04-23 17:22:00,32.0,8.0,-100.00,West,281,17.0,33.0,36,0.00,,,0.02,875.000000,,2013-04-23 23:22:00,
2013-04-23 17:31:00,32.0,8.0,-100.00,West,281,17.0,33.0,36,0.00,,,0.02,875.000000,,2013-04-23 23:31:00,
2013-04-23 17:42:00,32.0,8.0,-100.00,West,281,17.0,33.0,36,0.00,,,0.02,875.000000,,2013-04-23 23:42:00,
2013-04-23 18:11:00,33.0,5.0,-100.00,West,266,19.0,32.0,30,0.00,,,-99.99,641.000000,,2013-04-24 00:11:00,
2013-04-23 18:21:00,33.0,5.0,-100.00,West,266,19.0,32.0,30,0.00,,,-99.99,641.000000,,2013-04-24 00:21:00,
2013-04-23 18:32:00,33.0,5.0,-100.00,West,266,19.0,32.0,30,0.00,,,-99.99,641.000000,,2013-04-24 00:32:00,
2013-04-23 18:41:00,33.0,5.0,-100.00,West,266,19.0,32.0,30,0.00,,,-99.99,641.000000,,2013-04-24 00:41:00,
2013-04-23 19:11:00,31.0,5.0,-100.00,West,265,17.0,29.0,32,0.00,,,0.02,403.000000,,2013-04-24 01:11:00,
2013-04-23 19:21:00,31.0,5.0,-100.00,West,265,17.0,29.0,32,0.00,,,0.02,403.000000,,2013-04-24 01:21:00,
2013-04-23 19:32:00,31.0,5.0,-100.00,West,265,17.0,29.0,32,0.00,,,0.02,403.000000,,2013-04-24 01:32:00,
2013-04-23 19:42:00,31.0,5.0,-100.00,West,265,17.0,29.0,32,0.00,,,0.02,403.000000,,2013-04-24 01:42:00,
2013-04-23 20:15:00,27.0,4.0,-100.00,West,277,8.0,25.0,37,0.00,,,0.02,69.000000,,2013-04-24 02:15:00,
2013-04-23 20:26:00,27.0,4.0,-100.00,West,277,8.0,25.0,37,0.00,,,0.02,69.000000,,2013-04-24 02:26:00,
2013-04-23 20:44:00,27.0,4.0,-100.00,West,277,8.0,25.0,37,0.00,,,0.02,69.000000,,2013-04-24 02:44:00,
2013-04-23 21:14:00,25.0,4.0,-100.00,West,270,3.0,17.0,40,0.00,,,0.02,0.000000,,2013-04-24 03:14:00,
2013-04-23 21:26:00,25.0,4.0,-100.00,West,270,3.0,17.0,40,0.00,,,0.02,0.000000,,2013-04-24 03:26:00,
2013-04-23 21:45:00,25.0,4.0,-100.00,West,270,3.0,17.0,40,0.00,,,0.02,0.000000,,2013-04-24 03:45:00,
2013-04-23 22:12:00,24.0,4.0,-100.00,West,267,3.0,6.0,42,0.00,,,0.02,0.000000,,2013-04-24 04:12:00,
2013-04-23 22:22:00,24.0,4.0,-100.00,West,267,3.0,6.0,42,0.00,,,0.02,0.000000,,2013-04-24 04:22:00,
2013-04-23 22:33:00,24.0,4.0,-100.00,West,267,3.0,6.0,42,0.00,,,0.02,0.000000,,2013-04-24 04:33:00,
2013-04-23 22:43:00,24.0,4.0,-100.00,West,267,3.0,6.0,42,0.00,,,0.02,0.000000,,2013-04-24 04:43:00,
2013-04-23 23:12:00,23.0,3.0,-100.00,SW,219,5.0,9.0,41,0.00,,,0.02,0.000000,,2013-04-24 05:12:00,
2013-04-23 23:21:00,23.0,3.0,-100.00,SW,219,5.0,9.0,41,0.00,,,0.02,0.000000,,2013-04-24 05:21:00,
2013-04-23 23:32:00,23.0,3.0,-100.00,SW,219,5.0,9.0,41,0.00,,,0.02,0.000000,,2013-04-24 05:32:00,
2013-04-23 23:42:00,23.0,3.0,-100.00,SW,219,5.0,9.0,41,0.00,,,0.02,0.000000,,2013-04-24 05:42:00,